Time;durP1;ratioP1;P1;durP2;ratioP2;P2;SDS_P1;SDS_P2;PMS_P1;PMS_P2;Temp;Humidity;BMP_temperature;BMP_pressure;BME280_temperature;BME280_humidity;BME280_pressure;Samples;Min_cycle;Max_cycle;Signal;HPM_P1;HPM_P2
2021/06/23 00:02:00;;;;;;;4.05;2.60;;;16.50;72.80;;;;;;3570241;40;20311;-71
2021/06/23 00:04:26;;;;;;;4.78;2.80;;;16.50;73.10;;;;;;3577957;40;20179;-70
2021/06/23 00:06:51;;;;;;;5.65;2.70;;;16.40;73.50;;;;;;3576101;40;20036;-70
2021/06/23 00:09:17;;;;;;;4.45;2.63;;;16.30;74.20;;;;;;3566117;40;20036;-70
2021/06/23 00:11:45;;;;;;;4.13;2.45;;;16.20;74.70;;;;;;3573457;40;20056;-70
2021/06/23 00:14:12;;;;;;;3.25;2.40;;;16.10;75.50;;;;;;3572867;40;20025;-70
2021/06/23 00:16:39;;;;;;;3.83;2.28;;;16.10;76.10;;;;;;3573132;40;20040;-70
2021/06/23 00:19:05;;;;;;;4.30;2.75;;;16.10;76.30;;;;;;3576322;40;20040;-70
2021/06/23 00:21:31;;;;;;;3.92;2.50;;;16.10;76.80;;;;;;3578175;40;20056;-70
2021/06/23 00:23:57;;;;;;;6.45;2.80;;;16.10;76.20;;;;;;3566755;40;20122;-71
2021/06/23 00:26:23;;;;;;;6.28;3.28;;;16.10;76.00;;;;;;3565965;40;20029;-71
2021/06/23 00:28:48;;;;;;;5.20;2.50;;;16.20;76.30;;;;;;3573351;40;20597;-71
2021/06/23 00:31:14;;;;;;;5.10;2.47;;;16.20;77.10;;;;;;3575772;40;20047;-70
2021/06/23 00:33:40;;;;;;;4.75;2.80;;;16.10;78.20;;;;;;3570574;40;20072;-71
2021/06/23 00:36:06;;;;;;;3.70;2.50;;;16.10;78.60;;;;;;3571392;40;20310;-71
2021/06/23 00:38:32;;;;;;;3.38;2.75;;;16.20;79.00;;;;;;3577511;40;20037;-70
2021/06/23 00:40:58;;;;;;;3.58;2.88;;;16.20;79.30;;;;;;3575384;40;20025;-71
2021/06/23 00:43:25;;;;;;;5.18;3.00;;;16.20;79.50;;;;;;3574255;40;20021;-70
2021/06/23 00:45:51;;;;;;;5.60;2.75;;;16.20;79.80;;;;;;3570283;40;20040;-70
2021/06/23 00:48:28;;;;;;;4.55;2.67;;;16.20;76.50;;;;;;3562032;40;20045;-71
2021/06/23 00:50:59;;;;;;;6.65;2.75;;;16.20;76.10;;;;;;3572989;40;20075;-71
2021/06/23 00:53:42;;;;;;;3.58;2.72;;;16.20;77.00;;;;;;3574416;40;20157;-71
2021/06/23 00:56:08;;;;;;;5.07;3.17;;;16.10;77.20;;;;;;3566788;40;20037;-71
2021/06/23 00:58:34;;;;;;;4.65;2.47;;;16.10;77.80;;;;;;3567864;40;20747;-70
2021/06/23 01:01:03;;;;;;;8.45;2.92;;;16.10;78.50;;;;;;3568865;40;20766;-70
2021/06/23 01:03:29;;;;;;;4.97;3.17;;;16.00;79.00;;;;;;3570875;40;20052;-70
2021/06/23 01:06:07;;;;;;;5.50;2.95;;;16.10;80.00;;;;;;3572663;40;20029;-72
2021/06/23 01:08:33;;;;;;;3.55;2.78;;;16.00;80.40;;;;;;3564459;40;20155;-70
2021/06/23 01:11:05;;;;;;;4.20;2.67;;;16.10;80.70;;;;;;3570981;40;20056;-70
2021/06/23 01:13:36;;;;;;;4.60;2.78;;;16.10;80.70;;;;;;3575426;40;20127;-70
2021/06/23 01:16:06;;;;;;;6.60;3.13;;;16.10;80.50;;;;;;3568674;40;20074;-71
2021/06/23 01:18:35;;;;;;;5.57;3.05;;;16.10;80.60;;;;;;3563608;40;20547;-70
2021/06/23 01:21:02;;;;;;;10.75;3.17;;;16.20;80.80;;;;;;3562114;40;20080;-70
2021/06/23 01:23:28;;;;;;;8.48;2.97;;;16.20;80.70;;;;;;3573892;40;20040;-70
2021/06/23 01:25:53;;;;;;;4.40;2.75;;;16.20;80.70;;;;;;3574836;40;20320;-70
2021/06/23 01:28:19;;;;;;;2.85;2.28;;;16.10;79.40;;;;;;3576953;40;20033;-71
2021/06/23 01:30:59;;;;;;;4.28;2.75;;;16.10;77.20;;;;;;3569484;40;20445;-70
2021/06/23 01:33:30;;;;;;;5.13;3.08;;;16.10;76.40;;;;;;3578923;40;20037;-70
2021/06/23 01:35:57;;;;;;;7.68;2.53;;;16.00;76.80;;;;;;3572086;40;20056;-69
2021/06/23 01:38:24;;;;;;;6.20;2.90;;;16.00;77.20;;;;;;3570283;40;20236;-69
2021/06/23 01:40:52;;;;;;;4.85;3.20;;;15.90;78.00;;;;;;3572696;40;20032;-69
2021/06/23 01:43:19;;;;;;;5.57;3.00;;;15.90;77.90;;;;;;3564508;40;20033;-69
2021/06/23 01:45:46;;;;;;;4.13;2.78;;;16.00;77.50;;;;;;3570271;40;20057;-69
2021/06/23 01:48:19;;;;;;;5.28;3.13;;;15.90;77.90;;;;;;3570974;40;20051;-69
2021/06/23 01:50:56;;;;;;;5.60;2.92;;;16.00;78.60;;;;;;3570825;40;20032;-69
2021/06/23 01:53:30;;;;;;;6.65;3.35;;;16.00;78.90;;;;;;3573811;40;20057;-69
2021/06/23 01:55:55;;;;;;;4.00;2.97;;;15.90;79.50;;;;;;3570101;40;20734;-69
2021/06/23 01:58:22;;;;;;;6.03;3.25;;;15.90;79.90;;;;;;3570376;40;20114;-70
2021/06/23 02:00:59;;;;;;;4.32;2.75;;;16.00;79.90;;;;;;3569976;40;20163;-69
2021/06/23 02:03:34;;;;;;;5.68;3.28;;;15.90;79.70;;;;;;3576160;40;20029;-69
2021/06/23 02:06:06;;;;;;;3.58;2.75;;;15.90;79.80;;;;;;3564969;40;20037;-69
2021/06/23 02:09:05;;;;;;;3.60;2.85;;;15.90;80.10;;;;;;3572001;40;20574;-69
2021/06/23 02:11:42;;;;;;;5.90;3.55;;;15.90;80.20;;;;;;3570142;40;20041;-69
2021/06/23 02:14:14;;;;;;;5.75;3.28;;;15.90;80.60;;;;;;3571308;40;20133;-69
2021/06/23 02:16:56;;;;;;;4.28;3.13;;;15.90;80.60;;;;;;3575397;40;20037;-69
2021/06/23 02:19:26;;;;;;;5.80;2.80;;;16.00;80.70;;;;;;3578847;40;20458;-69
2021/06/23 02:22:28;;;;;;;4.72;3.17;;;16.00;80.50;;;;;;3565397;40;20056;-73
2021/06/23 02:25:10;;;;;;;7.35;3.30;;;15.90;80.80;;;;;;3580095;40;20036;-72
2021/06/23 02:27:59;;;;;;;3.92;2.70;;;15.90;80.80;;;;;;3580349;40;20043;-72
2021/06/23 02:30:26;;;;;;;5.05;3.15;;;15.90;80.60;;;;;;3578238;40;20545;-72
2021/06/23 02:32:57;;;;;;;7.10;3.25;;;15.90;80.50;;;;;;3565432;40;20059;-72
2021/06/23 02:35:34;;;;;;;4.40;3.10;;;15.90;80.30;;;;;;3570824;40;20413;-72
2021/06/23 02:38:03;;;;;;;7.50;3.08;;;16.00;80.20;;;;;;3569339;40;20117;-73
2021/06/23 02:40:29;;;;;;;4.70;2.63;;;16.00;80.00;;;;;;3571168;40;20033;-72
2021/06/23 02:43:02;;;;;;;4.10;2.67;;;16.00;79.90;;;;;;3571460;40;20028;-73
2021/06/23 02:45:29;;;;;;;6.22;3.20;;;16.00;79.60;;;;;;3579746;40;20061;-73
2021/06/23 02:47:56;;;;;;;6.10;3.42;;;16.10;79.70;;;;;;3571573;40;20045;-73
2021/06/23 02:50:39;;;;;;;7.32;3.35;;;16.10;79.40;;;;;;3571642;40;20044;-74
2021/06/23 02:53:18;;;;;;;6.28;3.17;;;16.10;79.00;;;;;;3572526;40;20036;-73
2021/06/23 02:55:45;;;;;;;4.72;2.80;;;16.10;78.80;;;;;;3568172;40;20033;-72
2021/06/23 02:58:13;;;;;;;5.45;3.40;;;16.10;78.90;;;;;;3577209;40;20032;-72
2021/06/23 03:00:41;;;;;;;5.65;3.28;;;16.10;78.70;;;;;;3571659;40;20024;-72
2021/06/23 03:03:07;;;;;;;5.13;3.17;;;16.10;78.70;;;;;;3573474;40;20037;-72
2021/06/23 03:05:33;;;;;;;4.00;2.90;;;16.10;78.80;;;;;;3565616;40;20041;-72
2021/06/23 03:07:59;;;;;;;6.35;3.13;;;16.10;78.90;;;;;;3566794;40;20348;-72
2021/06/23 03:10:38;;;;;;;7.15;3.38;;;16.10;79.00;;;;;;3563965;40;20393;-72
2021/06/23 03:13:06;;;;;;;6.90;2.95;;;16.10;79.10;;;;;;3576582;40;20049;-72
2021/06/23 03:15:54;;;;;;;5.10;3.00;;;16.00;79.20;;;;;;3568485;40;20048;-74
2021/06/23 03:18:34;;;;;;;4.88;3.10;;;16.00;79.20;;;;;;3570839;40;20434;-72
2021/06/23 03:21:03;;;;;;;7.45;3.42;;;16.00;79.60;;;;;;3571502;40;20025;-74
2021/06/23 03:23:30;;;;;;;7.20;3.42;;;15.90;79.70;;;;;;3559853;40;20054;-74
2021/06/23 03:25:56;;;;;;;4.78;2.95;;;15.90;79.60;;;;;;3577031;40;20707;-73
2021/06/23 03:28:23;;;;;;;7.20;3.72;;;15.90;79.40;;;;;;3578731;40;20037;-74
2021/06/23 03:30:54;;;;;;;5.35;3.63;;;15.90;79.60;;;;;;3563478;40;20767;-74
2021/06/23 03:33:20;;;;;;;7.25;3.40;;;16.00;79.80;;;;;;3572422;40;20041;-74
2021/06/23 03:36:05;;;;;;;6.93;3.50;;;16.00;79.20;;;;;;3578533;40;20077;-74
2021/06/23 03:38:32;;;;;;;6.78;3.45;;;15.90;79.60;;;;;;3578772;40;20068;-74
2021/06/23 03:40:59;;;;;;;7.50;3.55;;;15.90;78.80;;;;;;3570990;40;20029;-74
2021/06/23 03:43:27;;;;;;;4.95;3.05;;;15.90;79.10;;;;;;3568417;40;20478;-74
2021/06/23 03:45:53;;;;;;;5.70;3.40;;;15.90;79.20;;;;;;3579296;40;20040;-73
2021/06/23 03:48:19;;;;;;;4.28;3.15;;;15.90;79.60;;;;;;3575909;40;20047;-74
2021/06/23 03:50:54;;;;;;;6.57;3.38;;;15.90;79.70;;;;;;3569635;40;20603;-74
2021/06/23 03:53:19;;;;;;;5.70;3.05;;;15.90;79.90;;;;;;3573160;40;20030;-74
2021/06/23 03:55:47;;;;;;;5.38;3.30;;;15.90;79.80;;;;;;3556341;40;20051;-71
2021/06/23 03:58:13;;;;;;;4.88;3.17;;;16.00;79.80;;;;;;3581414;40;20044;-71
2021/06/23 04:00:39;;;;;;;6.22;3.30;;;16.00;79.70;;;;;;3564625;40;20088;-71
2021/06/23 04:03:27;;;;;;;5.82;3.28;;;16.10;79.70;;;;;;3572270;40;20051;-75
2021/06/23 04:06:09;;;;;;;6.13;3.40;;;16.10;79.50;;;;;;3569200;40;20060;-74
2021/06/23 04:08:36;;;;;;;4.85;3.70;;;16.20;79.60;;;;;;3573121;40;20025;-74
2021/06/23 04:11:02;;;;;;;7.50;3.65;;;16.30;79.20;;;;;;3565527;40;20138;-74
2021/06/23 04:13:28;;;;;;;6.00;3.63;;;16.40;79.10;;;;;;3567777;40;20762;-74
2021/06/23 04:15:54;;;;;;;7.35;4.00;;;16.50;78.60;;;;;;3576868;40;20061;-74
2021/06/23 04:18:22;;;;;;;7.18;3.30;;;16.60;78.30;;;;;;3579199;40;20118;-74
2021/06/23 04:20:49;;;;;;;6.43;3.80;;;16.80;77.80;;;;;;3569673;40;20040;-74
2021/06/23 04:23:17;;;;;;;7.13;3.67;;;16.90;77.10;;;;;;3581620;40;20047;-74
2021/06/23 04:25:43;;;;;;;5.30;3.72;;;17.00;77.00;;;;;;3558741;40;20453;-74
2021/06/23 04:28:09;;;;;;;7.47;3.53;;;17.10;76.60;;;;;;3569548;40;20044;-74
2021/06/23 04:30:36;;;;;;;6.05;3.45;;;17.20;76.30;;;;;;3567671;40;20076;-74
2021/06/23 04:33:03;;;;;;;7.75;3.38;;;17.20;75.80;;;;;;3568835;40;20033;-74
2021/06/23 04:35:44;;;;;;;11.05;3.75;;;17.30;75.40;;;;;;3578289;40;20150;-74
2021/06/23 04:38:10;;;;;;;6.40;3.63;;;17.30;75.40;;;;;;3570117;40;20041;-74
2021/06/23 04:40:36;;;;;;;5.75;3.20;;;17.30;75.60;;;;;;3578038;40;20029;-74
2021/06/23 04:43:03;;;;;;;7.38;3.10;;;17.30;75.50;;;;;;3559216;40;20059;-74
2021/06/23 04:45:29;;;;;;;6.45;3.60;;;17.40;75.70;;;;;;3566634;40;20041;-74
2021/06/23 04:48:01;;;;;;;6.25;3.38;;;17.50;75.20;;;;;;3576993;40;20033;-74
2021/06/23 04:50:32;;;;;;;7.10;3.35;;;17.60;74.80;;;;;;3568948;40;20107;-74
2021/06/23 04:53:02;;;;;;;5.65;2.90;;;17.70;74.30;;;;;;3577276;40;20044;-74
2021/06/23 04:55:29;;;;;;;7.65;3.15;;;17.90;73.80;;;;;;3570860;40;20033;-74
2021/06/23 04:58:06;;;;;;;6.95;3.33;;;17.90;73.30;;;;;;3579349;40;20025;-74
2021/06/23 05:00:32;;;;;;;7.18;3.20;;;18.00;73.00;;;;;;3579128;40;20317;-74
2021/06/23 05:02:58;;;;;;;8.13;3.00;;;18.20;72.50;;;;;;3569757;40;20470;-74
2021/06/23 05:05:25;;;;;;;6.07;3.05;;;18.30;71.90;;;;;;3566630;40;20052;-74
2021/06/23 05:07:53;;;;;;;8.40;3.10;;;18.40;71.40;;;;;;3575911;40;20036;-74
2021/06/23 05:10:19;;;;;;;7.00;2.92;;;18.40;71.30;;;;;;3575115;40;20084;-74
2021/06/23 05:12:45;;;;;;;6.07;3.28;;;18.50;71.30;;;;;;3576952;40;20036;-74
2021/06/23 05:15:11;;;;;;;7.82;3.20;;;18.60;70.80;;;;;;3579958;40;20051;-74
2021/06/23 05:17:37;;;;;;;4.50;2.50;;;18.60;70.80;;;;;;3578093;40;20041;-74
2021/06/23 05:20:04;;;;;;;9.18;3.15;;;18.70;70.40;;;;;;3575161;40;20047;-74
2021/06/23 05:22:29;;;;;;;9.32;3.00;;;18.70;70.10;;;;;;3579021;40;20044;-74
2021/06/23 05:24:57;;;;;;;8.63;3.10;;;18.80;69.90;;;;;;3565666;40;20123;-74
2021/06/23 05:27:22;;;;;;;5.22;2.53;;;18.80;69.30;;;;;;3571565;40;20056;-74
2021/06/23 05:29:48;;;;;;;7.40;3.17;;;18.70;70.00;;;;;;3560771;40;20051;-74
2021/06/23 05:32:14;;;;;;;5.45;2.55;;;18.70;70.20;;;;;;3577620;40;20029;-74
2021/06/23 05:34:39;;;;;;;7.30;3.03;;;18.70;70.20;;;;;;3573658;40;20029;-74
2021/06/23 05:37:05;;;;;;;9.55;2.95;;;18.60;70.50;;;;;;3575680;40;20036;-74
2021/06/23 05:39:31;;;;;;;9.57;2.97;;;18.60;70.80;;;;;;3567768;40;20072;-74
2021/06/23 05:41:57;;;;;;;3.75;2.30;;;18.60;70.80;;;;;;3572592;40;20461;-73
2021/06/23 05:44:23;;;;;;;4.90;2.83;;;18.70;70.90;;;;;;3576758;40;20098;-74
2021/06/23 05:46:49;;;;;;;9.15;3.10;;;18.80;70.70;;;;;;3576363;40;20041;-70
2021/06/23 05:49:14;;;;;;;10.18;3.05;;;18.80;70.60;;;;;;3566086;40;20029;-70
2021/06/23 05:51:40;;;;;;;7.93;3.05;;;18.90;70.70;;;;;;3565496;40;20401;-70
2021/06/23 05:54:05;;;;;;;8.18;2.83;;;18.90;70.40;;;;;;3578001;40;20514;-71
2021/06/23 05:56:31;;;;;;;7.03;3.17;;;19.00;70.20;;;;;;3580001;40;20028;-71
2021/06/23 05:58:57;;;;;;;11.18;2.55;;;19.10;70.20;;;;;;3571083;40;20384;-71
2021/06/23 06:01:23;;;;;;;7.07;2.70;;;19.20;69.50;;;;;;3574795;40;20022;-70
2021/06/23 06:03:49;;;;;;;8.60;2.88;;;19.30;69.50;;;;;;3573793;40;20310;-71
2021/06/23 06:06:15;;;;;;;8.98;3.03;;;19.40;68.90;;;;;;3577402;40;20024;-71
2021/06/23 06:08:40;;;;;;;6.30;2.83;;;19.50;68.10;;;;;;3577712;40;20765;-71
2021/06/23 06:11:06;;;;;;;6.80;2.25;;;19.60;66.70;;;;;;3577969;40;20039;-71
2021/06/23 06:13:32;;;;;;;9.82;2.40;;;19.70;67.10;;;;;;3580494;40;20420;-71
2021/06/23 06:15:57;;;;;;;9.02;2.50;;;19.70;67.00;;;;;;3575646;40;20134;-71
2021/06/23 06:18:24;;;;;;;9.45;2.58;;;19.80;66.60;;;;;;3563968;40;20037;-71
2021/06/23 06:20:53;;;;;;;8.23;2.90;;;19.80;66.60;;;;;;3570634;40;20040;-71
2021/06/23 06:23:19;;;;;;;11.30;2.80;;;19.80;66.50;;;;;;3578932;40;20025;-71
2021/06/23 06:25:45;;;;;;;4.45;2.03;;;19.90;66.10;;;;;;3576183;40;20828;-71
2021/06/23 06:28:10;;;;;;;11.15;2.45;;;19.90;66.40;;;;;;3577965;40;20032;-71
2021/06/23 06:30:36;;;;;;;11.25;2.72;;;19.90;65.90;;;;;;3578450;40;20029;-71
2021/06/23 06:33:02;;;;;;;6.45;2.47;;;19.90;66.20;;;;;;3574075;40;20033;-71
2021/06/23 06:35:28;;;;;;;8.88;2.70;;;19.90;66.00;;;;;;3580979;40;20134;-71
2021/06/23 06:37:56;;;;;;;7.47;2.70;;;19.90;65.80;;;;;;3576057;40;20049;-70
2021/06/23 06:40:22;;;;;;;5.70;2.20;;;19.90;66.40;;;;;;3577406;40;20047;-71
2021/06/23 06:42:47;;;;;;;7.22;2.85;;;20.00;65.70;;;;;;3577660;40;20025;-70
2021/06/23 06:45:13;;;;;;;12.90;2.85;;;20.10;66.10;;;;;;3576836;40;20497;-71
2021/06/23 06:47:39;;;;;;;6.22;2.28;;;20.10;66.00;;;;;;3578904;40;20445;-71
2021/06/23 06:50:06;;;;;;;9.30;2.42;;;20.20;65.70;;;;;;3580190;40;20048;-71
2021/06/23 06:52:32;;;;;;;11.25;2.08;;;20.20;66.00;;;;;;3581269;40;20044;-70
2021/06/23 06:54:59;;;;;;;9.02;2.55;;;20.30;65.80;;;;;;3570683;40;20024;-71
2021/06/23 06:57:24;;;;;;;5.32;2.15;;;20.40;65.30;;;;;;3574054;40;20049;-71
2021/06/23 06:59:50;;;;;;;8.73;2.38;;;20.50;65.00;;;;;;3577660;40;20064;-70
2021/06/23 07:02:16;;;;;;;6.80;2.55;;;20.50;65.00;;;;;;3576424;40;20047;-71
2021/06/23 07:04:41;;;;;;;8.60;2.75;;;20.50;65.00;;;;;;3579379;40;20036;-72
2021/06/23 07:07:07;;;;;;;8.00;2.95;;;20.50;64.50;;;;;;3572350;40;20025;-72
2021/06/23 07:09:33;;;;;;;7.47;2.72;;;20.50;64.90;;;;;;3572065;40;20064;-71
2021/06/23 07:11:58;;;;;;;13.27;2.70;;;20.50;65.00;;;;;;3581056;40;20032;-71
2021/06/23 07:14:24;;;;;;;7.38;2.60;;;20.60;64.10;;;;;;3579912;40;20040;-71
2021/06/23 07:16:50;;;;;;;8.95;2.88;;;20.60;64.30;;;;;;3578782;40;20036;-71
2021/06/23 07:19:16;;;;;;;6.47;2.60;;;20.60;64.40;;;;;;3574269;40;20298;-72
2021/06/23 07:21:42;;;;;;;8.88;2.60;;;20.70;64.30;;;;;;3569783;40;20044;-72
2021/06/23 07:24:08;;;;;;;10.38;2.72;;;20.70;64.30;;;;;;3567891;40;20510;-72
2021/06/23 07:27:02;;;;;;;8.85;2.90;;;20.60;63.80;;;;;;3580064;40;20030;-71
2021/06/23 07:29:27;;;;;;;5.18;2.25;;;20.60;64.20;;;;;;3574953;40;20048;-71
2021/06/23 07:37:01;;;;;;;9.18;2.72;;;20.60;64.70;;;;;;3575745;40;20023;-70
2021/06/23 07:39:27;;;;;;;9.07;2.88;;;20.60;64.10;;;;;;3575892;40;20170;-70
2021/06/23 07:41:53;;;;;;;7.32;2.33;;;20.50;65.00;;;;;;3574165;40;20580;-70
2021/06/23 07:44:23;;;;;;;8.75;2.75;;;20.50;64.80;;;;;;3575888;40;20029;-70
2021/06/23 07:47:00;;;;;;;9.88;2.80;;;20.50;65.00;;;;;;3559832;40;20036;-70
2021/06/23 07:49:29;;;;;;;9.30;2.45;;;20.50;65.40;;;;;;3576761;40;20397;-69
2021/06/23 07:54:29;;;;;;;5.25;2.58;;;20.50;65.90;;;;;;3574589;40;20036;-70
2021/06/23 08:10:30;;;;;;;10.57;2.80;;;20.60;65.40;;;;;;3565749;40;20353;-72
2021/06/23 08:12:58;;;;;;;8.00;2.15;;;20.60;65.30;;;;;;3580571;40;20377;-70
2021/06/23 08:15:26;;;;;;;9.68;2.42;;;20.70;64.60;;;;;;3581347;40;20091;-68
2021/06/23 08:17:52;;;;;;;6.57;2.10;;;20.70;64.20;;;;;;3570575;40;20113;-69
2021/06/23 08:20:18;;;;;;;8.10;2.40;;;20.80;64.00;;;;;;3578280;40;20028;-72
2021/06/23 08:22:44;;;;;;;7.45;2.50;;;20.90;63.20;;;;;;3577842;40;20092;-74
2021/06/23 08:25:11;;;;;;;6.65;2.25;;;20.90;63.40;;;;;;3577454;40;20299;-71
2021/06/23 08:27:38;;;;;;;7.78;2.58;;;21.00;63.60;;;;;;3575278;40;20048;-71
2021/06/23 08:30:05;;;;;;;9.50;2.78;;;21.00;63.70;;;;;;3576166;40;20044;-71
2021/06/23 08:32:31;;;;;;;9.95;2.75;;;21.20;63.60;;;;;;3578855;40;20045;-69
2021/06/23 08:34:56;;;;;;;8.20;2.15;;;21.40;62.90;;;;;;3579590;40;20395;-70
2021/06/23 08:37:22;;;;;;;12.48;2.78;;;21.60;62.70;;;;;;3577867;40;20720;-66
2021/06/23 08:39:48;;;;;;;5.97;2.08;;;21.90;62.20;;;;;;3570983;40;20398;-71
2021/06/23 08:42:13;;;;;;;11.50;2.53;;;22.10;60.60;;;;;;3576673;40;20044;-70
2021/06/23 08:44:39;;;;;;;8.80;2.63;;;22.30;60.40;;;;;;3573210;40;20315;-70
2021/06/23 08:47:05;;;;;;;10.02;3.60;;;22.50;60.10;;;;;;3580728;40;20043;-70
2021/06/23 08:49:31;;;;;;;8.63;2.70;;;22.70;59.40;;;;;;3570919;40;20037;-70
2021/06/23 08:51:57;;;;;;;9.85;2.50;;;22.90;58.40;;;;;;3575278;40;20032;-70
2021/06/23 08:54:26;;;;;;;6.45;2.33;;;23.00;57.40;;;;;;3556908;40;20407;-70
2021/06/23 08:56:51;;;;;;;11.02;2.25;;;23.00;57.40;;;;;;3576935;40;20020;-70
2021/06/23 08:59:17;;;;;;;9.10;2.15;;;23.10;56.60;;;;;;3577864;40;20141;-71
2021/06/23 09:01:43;;;;;;;7.15;2.33;;;23.10;56.80;;;;;;3579262;40;20420;-71
2021/06/23 09:04:18;;;;;;;6.13;2.30;;;23.10;56.70;;;;;;3578587;40;20040;-71
2021/06/23 09:06:53;;;;;;;10.63;3.10;;;23.10;57.40;;;;;;3569519;40;20029;-70
2021/06/23 09:09:21;;;;;;;11.30;2.50;;;23.00;57.20;;;;;;3574781;40;20029;-71
2021/06/23 09:11:49;;;;;;;6.82;1.90;;;23.00;56.60;;;;;;3574086;40;20029;-71
2021/06/23 09:14:18;;;;;;;8.20;2.25;;;23.00;55.90;;;;;;3574960;40;20087;-71
2021/06/23 09:16:59;;;;;;;8.27;2.30;;;22.90;56.40;;;;;;3573186;40;20048;-70
2021/06/23 09:19:29;;;;;;;8.68;2.28;;;23.10;56.50;;;;;;3567043;40;20058;-70
2021/06/23 09:21:55;;;;;;;7.43;2.22;;;23.20;56.30;;;;;;3570503;40;20032;-69
2021/06/23 09:24:33;;;;;;;7.05;1.95;;;23.30;56.00;;;;;;3573906;40;20028;-70
2021/06/23 09:26:59;;;;;;;5.78;2.22;;;23.50;55.60;;;;;;3576411;40;20122;-71
2021/06/23 09:29:25;;;;;;;6.78;2.13;;;23.60;54.90;;;;;;3577045;40;20021;-68
2021/06/23 09:31:53;;;;;;;9.32;2.28;;;23.80;53.70;;;;;;3575714;40;20051;-68
2021/06/23 09:34:29;;;;;;;11.57;2.83;;;23.80;54.00;;;;;;3579567;40;20040;-72
2021/06/23 09:36:55;;;;;;;5.35;1.90;;;23.70;53.30;;;;;;3577706;40;20782;-69
2021/06/23 09:39:26;;;;;;;11.55;2.40;;;23.60;54.50;;;;;;3574434;40;20029;-72
2021/06/23 09:41:52;;;;;;;12.15;2.42;;;23.40;54.20;;;;;;3578467;40;20123;-68
2021/06/23 09:44:19;;;;;;;6.55;2.30;;;23.30;54.80;;;;;;3580262;40;20326;-70
2021/06/23 09:46:48;;;;;;;8.13;2.65;;;23.20;55.50;;;;;;3571563;40;20500;-70
2021/06/23 09:49:18;;;;;;;7.70;2.20;;;23.10;55.00;;;;;;3579890;40;20147;-71
2021/06/23 09:51:44;;;;;;;4.78;1.88;;;23.00;55.40;;;;;;3578306;40;20029;-70
2021/06/23 09:54:11;;;;;;;4.57;1.90;;;22.90;56.10;;;;;;3576870;40;20035;-69
2021/06/23 09:56:43;;;;;;;6.03;2.17;;;22.90;55.70;;;;;;3572448;40;20092;-70
2021/06/23 09:59:17;;;;;;;7.20;1.80;;;22.90;56.10;;;;;;3571226;40;20291;-68
2021/06/23 10:01:43;;;;;;;8.38;2.00;;;22.80;55.90;;;;;;3577211;40;20032;-70
2021/06/23 10:04:09;;;;;;;5.03;2.55;;;22.80;55.80;;;;;;3568635;40;20045;-70
2021/06/23 10:06:37;;;;;;;8.63;2.40;;;22.80;56.10;;;;;;3578718;40;20134;-70
2021/06/23 10:09:20;;;;;;;7.88;2.42;;;22.80;56.60;;;;;;3581096;40;20069;-70
2021/06/23 10:11:49;;;;;;;7.90;2.40;;;22.70;56.70;;;;;;3580935;40;20134;-70
2021/06/23 10:14:14;;;;;;;4.75;2.13;;;22.60;56.00;;;;;;3577563;40;20064;-72
2021/06/23 10:16:41;;;;;;;7.10;2.65;;;22.50;56.60;;;;;;3576730;40;20059;-72
2021/06/23 10:19:08;;;;;;;5.30;2.15;;;22.50;56.70;;;;;;3577837;40;20032;-70
2021/06/23 10:21:36;;;;;;;9.50;2.33;;;22.40;57.40;;;;;;3567142;40;20025;-70
2021/06/23 10:24:03;;;;;;;6.35;2.00;;;22.20;57.60;;;;;;3571179;40;20126;-69
2021/06/23 10:26:29;;;;;;;6.28;1.90;;;22.20;57.80;;;;;;3574966;40;20119;-72
2021/06/23 10:28:56;;;;;;;5.43;2.00;;;22.20;58.40;;;;;;3571033;40;20021;-68
2021/06/23 10:31:24;;;;;;;8.05;2.83;;;22.20;60.10;;;;;;3576560;40;20037;-70
2021/06/23 10:33:50;;;;;;;10.52;3.33;;;22.20;60.40;;;;;;3578044;40;20047;-71
2021/06/23 10:36:16;;;;;;;12.55;2.25;;;22.20;59.80;;;;;;3577083;40;20021;-71
2021/06/23 10:38:44;;;;;;;5.05;2.33;;;22.20;60.30;;;;;;3577177;40;20505;-70
2021/06/23 10:41:11;;;;;;;8.65;2.45;;;22.20;60.60;;;;;;3578555;40;20049;-70
2021/06/23 10:43:37;;;;;;;5.55;2.10;;;22.20;61.40;;;;;;3580937;40;20053;-70
2021/06/23 10:46:03;;;;;;;6.97;2.45;;;22.20;61.00;;;;;;3580063;40;20052;-71
2021/06/23 10:48:29;;;;;;;11.52;3.15;;;22.30;59.60;;;;;;3578522;40;20045;-70
2021/06/23 10:50:55;;;;;;;9.43;3.70;;;22.40;59.00;;;;;;3576969;40;20109;-70
2021/06/23 10:53:29;;;;;;;12.13;3.20;;;22.40;58.80;;;;;;3578550;40;20376;-70
2021/06/23 10:55:56;;;;;;;6.75;3.25;;;22.30;59.70;;;;;;3579423;40;20808;-68
2021/06/23 10:58:30;;;;;;;10.43;3.75;;;22.30;60.40;;;;;;3581150;40;20435;-68
2021/06/23 11:01:14;;;;;;;10.50;3.08;;;22.10;60.00;;;;;;3581468;40;20772;-69
2021/06/23 11:04:02;;;;;;;7.25;2.95;;;22.00;61.70;;;;;;3578903;40;20063;-68
2021/06/23 11:06:38;;;;;;;10.13;2.10;;;22.00;62.60;;;;;;3576330;40;20033;-67
2021/06/23 11:09:22;;;;;;;8.18;2.60;;;21.90;61.70;;;;;;3577676;40;20049;-67
2021/06/23 11:11:49;;;;;;;7.25;2.25;;;21.80;61.70;;;;;;3577421;40;20024;-69
2021/06/23 11:14:16;;;;;;;9.07;2.70;;;21.70;61.40;;;;;;3578160;40;20022;-67
2021/06/23 11:16:42;;;;;;;8.80;2.45;;;21.60;62.80;;;;;;3573613;40;20102;-68
2021/06/23 11:19:09;;;;;;;8.60;2.42;;;21.70;61.30;;;;;;3571696;40;20076;-69
2021/06/23 11:21:35;;;;;;;6.53;2.30;;;21.70;61.40;;;;;;3563681;40;20044;-72
2021/06/23 11:24:02;;;;;;;10.35;2.00;;;21.70;61.10;;;;;;3575622;40;20509;-72
2021/06/23 11:26:27;;;;;;;13.85;2.30;;;21.60;61.00;;;;;;3578160;40;20053;-72
2021/06/23 11:29:16;;;;;;;8.07;2.38;;;21.50;61.80;;;;;;3574235;40;20620;-73
2021/06/23 11:31:44;;;;;;;11.90;2.25;;;21.50;61.00;;;;;;3575352;40;20051;-72
2021/06/23 11:34:11;;;;;;;6.25;1.77;;;21.50;60.60;;;;;;3570106;40;20040;-72
2021/06/23 11:36:37;;;;;;;8.05;2.03;;;21.50;60.50;;;;;;3563792;40;20414;-73
2021/06/23 11:39:04;;;;;;;13.32;1.95;;;21.50;60.30;;;;;;3571505;40;20025;-72
2021/06/23 11:41:30;;;;;;;5.88;1.90;;;21.60;59.90;;;;;;3577075;40;20056;-70
2021/06/23 11:43:56;;;;;;;6.20;1.65;;;21.60;60.50;;;;;;3574983;40;20037;-71
2021/06/23 11:46:21;;;;;;;9.65;2.13;;;21.60;60.40;;;;;;3574102;40;20075;-71
2021/06/23 11:48:47;;;;;;;7.90;2.20;;;21.70;60.30;;;;;;3579551;40;20133;-70
2021/06/23 11:51:14;;;;;;;11.25;1.88;;;21.70;59.90;;;;;;3579888;40;20025;-73
2021/06/23 11:53:40;;;;;;;5.38;1.60;;;21.70;60.00;;;;;;3578722;40;20109;-69
2021/06/23 11:56:07;;;;;;;5.78;1.60;;;21.80;58.90;;;;;;3578596;40;20047;-71
2021/06/23 11:58:33;;;;;;;7.43;1.95;;;21.70;59.50;;;;;;3577132;40;20580;-70
2021/06/23 12:01:00;;;;;;;6.10;1.83;;;21.70;59.30;;;;;;3576916;40;20028;-72
2021/06/23 12:03:26;;;;;;;6.97;2.00;;;21.80;59.40;;;;;;3573390;40;20033;-72
2021/06/23 12:05:52;;;;;;;6.00;1.92;;;21.80;59.10;;;;;;3562523;40;20039;-73
2021/06/23 12:08:17;;;;;;;4.07;1.70;;;21.80;60.00;;;;;;3555218;40;20110;-73
2021/06/23 12:10:44;;;;;;;5.80;1.63;;;21.90;59.80;;;;;;3572847;40;20029;-69
2021/06/23 12:13:12;;;;;;;5.90;1.90;;;21.80;61.00;;;;;;3574785;40;20482;-72
2021/06/23 12:15:38;;;;;;;5.20;1.33;;;21.90;60.70;;;;;;3570762;40;20044;-69
2021/06/23 12:18:06;;;;;;;6.97;2.22;;;21.90;59.80;;;;;;3576947;40;20029;-71
2021/06/23 12:20:34;;;;;;;6.63;1.83;;;22.00;58.70;;;;;;3579319;40;20652;-70
2021/06/23 12:23:03;;;;;;;5.93;2.00;;;22.00;58.90;;;;;;3574707;40;20107;-74
2021/06/23 12:25:38;;;;;;;7.70;2.42;;;22.00;58.70;;;;;;3574756;40;20029;-70
2021/06/23 12:28:06;;;;;;;5.97;2.30;;;22.10;58.60;;;;;;3573210;40;20485;-70
2021/06/23 12:30:33;;;;;;;7.57;2.00;;;22.30;57.90;;;;;;3577511;40;20762;-72
2021/06/23 12:33:03;;;;;;;9.63;2.60;;;22.40;56.70;;;;;;3567603;40;20044;-72
2021/06/23 12:35:30;;;;;;;8.38;2.65;;;22.60;56.70;;;;;;3578707;40;20029;-71
2021/06/23 12:37:56;;;;;;;5.30;2.00;;;22.70;56.10;;;;;;3580435;40;20028;-71
2021/06/23 12:40:22;;;;;;;9.35;2.22;;;22.80;54.80;;;;;;3581078;40;20036;-71
2021/06/23 12:42:48;;;;;;;7.35;2.30;;;22.90;55.30;;;;;;3579660;40;20376;-71
2021/06/23 12:45:15;;;;;;;5.85;2.35;;;23.00;55.20;;;;;;3578285;40;20365;-72
2021/06/23 12:47:40;;;;;;;5.93;2.10;;;23.00;55.30;;;;;;3576865;40;20054;-71
2021/06/23 12:50:08;;;;;;;7.60;2.03;;;23.10;54.40;;;;;;3577187;40;20029;-72
2021/06/23 12:52:34;;;;;;;5.57;2.10;;;23.20;54.40;;;;;;3579614;40;20040;-70
2021/06/23 12:55:00;;;;;;;6.50;2.40;;;23.30;54.50;;;;;;3566735;40;20088;-70
2021/06/23 12:57:26;;;;;;;5.35;2.00;;;23.20;53.80;;;;;;3570895;40;20029;-70
2021/06/23 12:59:52;;;;;;;8.77;3.70;;;23.20;53.80;;;;;;3574180;40;20048;-70
2021/06/23 13:02:19;;;;;;;8.55;2.63;;;23.20;54.00;;;;;;3576804;40;20032;-70
2021/06/23 13:04:45;;;;;;;8.75;3.38;;;23.20;54.00;;;;;;3575613;40;20055;-73
2021/06/23 13:07:11;;;;;;;8.05;3.30;;;23.20;53.90;;;;;;3575435;40;20461;-68
2021/06/23 13:09:36;;;;;;;9.38;3.45;;;23.20;54.60;;;;;;3572206;40;20114;-70
2021/06/23 13:12:03;;;;;;;7.78;2.80;;;23.20;55.20;;;;;;3574853;40;20052;-71
2021/06/23 13:14:28;;;;;;;8.30;3.28;;;23.20;55.10;;;;;;3570357;40;20071;-70